Latest Coastal Weather Observations for Frederick Reef

IDQ60701

Issued at 5:31 am EST Thursday 17 August 2017 (issued every 10 minutes, with the page automatically refreshed every 10 minutes)

About coastal observations | Map of coastal stations | Coastal observations for QLD | Marine services | Other Formats
Station Details ID: 200701 Name: FREDERICK REEF Lat: -20.94 Lon: 154.40 Height: 4.9 m
Data from the previous 72 hours. | See also: Recent months for locations in Queensland
Date/Time
EST
Temp
°C
Wind Pressure Rain since
9am
mm
Weather Cloud Vis
km
Sea
Height
m
Swell
Dir  Spd
kts
Gust
kts
hPa Trend Height
m
Period
s
Dir
17/05:30am 22.3 WNW 8 9 1015.8 - - - - - - - - -
17/05:00am 22.5 NNW 8 9 1015.6 - - - - - - - - -
17/04:30am 22.3 N 10 11 1015.1 - - - - - - - - -
17/04:00am 22.7 W 6 8 1015.2 - - - - - - - - -
17/03:30am 22.4 W 6 8 1015.2 - - - - - - - - -
17/03:00am 22.4 W 6 7 1015.2 - - - - - - - - -
17/02:30am 22.5 W 6 7 1015.3 - - - - - - - - -
17/02:00am 22.4 WNW 6 8 1015.3 - - - - - - - - -
17/01:30am 22.7 NNW 8 10 1015.5 - - - - - - - - -
17/01:00am 22.4 NNW 9 10 1015.6 - - - - - - - - -
17/12:30am 22.5 N 9 11 1015.9 - - - - - - - - -
17/12:00am 22.5 N 9 11 1016.0 - - - - - - - - -
 
Date/Time
EST
Temp
°C
Wind Pressure Rain since
9am
mm
Weather Cloud Vis
km
Sea
Height
m
Swell
Dir  Spd
kts
Gust
kts
hPa Trend Height
m
Period
s
Dir
16/11:30pm 22.6 N 11 13 1016.3 - - - - - - - - -
16/11:00pm 22.6 N 10 12 1016.4 - - - - - - - - -
16/10:30pm 22.5 NE 11 13 1016.6 - - - - - - - - -
16/10:00pm 22.8 NNE 10 11 1016.7 - - - - - - - - -
16/09:30pm 22.5 NE 11 12 1016.8 - - - - - - - - -
16/09:00pm 22.6 NE 11 12 1016.7 - - - - - - - - -
16/08:30pm 22.6 W 5 8 1016.6 - - - - - - - - -
16/08:00pm 22.5 W 6 9 1016.5 - - - - - - - - -
16/07:30pm 22.5 NNE 8 11 1016.4 - - - - - - - - -
16/07:00pm 22.6 NNW 7 11 1016.1 - - - - - - - - -
16/06:30pm 22.6 ENE 10 11 1015.8 - - - - - - - - -
16/06:00pm 22.5 NE 10 12 1015.7 - - - - - - - - -
16/05:30pm 22.7 SW 5 9 1015.6 - - - - - - - - -
16/05:00pm 22.7 S 8 10 1015.4 - - - - - - - - -
16/04:30pm 22.7 SSE 8 9 1015.2 - - - - - - - - -
16/04:00pm 22.7 E 7 10 1015.1 - - - - - - - - -
16/03:30pm 22.5 ENE 7 9 1014.8 - - - - - - - - -
16/03:00pm 22.5 ENE 8 10 1014.8 - - - - - - - - -
16/02:30pm 22.5 E 7 9 1015.0 - - - - - - - - -
16/02:00pm 22.3 ENE 8 9 1015.3 - - - - - - - - -
16/01:30pm 22.4 ENE 10 12 1015.4 - - - - - - - - -
16/01:00pm 22.3 ENE 10 13 1015.7 - - - - - - - - -
16/12:30pm 22.3 ENE 11 14 1016.1 - - - - - - - - -
16/12:00pm 22.3 ENE 12 13 1016.4 - - - - - - - - -
16/11:30am 22.3 E 12 14 1016.8 - - - - - - - - -
16/11:00am 22.3 E 12 15 1017.1 - - - - - - - - -
16/10:30am 22.2 E 13 14 1017.3 - - - - - - - - -
16/10:00am 22.3 E 12 14 1017.4 - - - - - - - - -
16/09:30am 22.5 E 13 15 1017.7 - - - - - - - - -
16/09:00am 22.2 E 14 17 1017.7 - - - - - - - - -
16/08:30am 22.4 E 14 16 1017.4 - - - - - - - - -
16/08:00am 22.3 E 13 16 1017.4 - - - - - - - - -
16/07:30am 22.1 E 14 17 1017.4 - - - - - - - - -
16/07:00am 22.2 E 15 17 1017.2 - - - - - - - - -
16/06:30am 22.1 E 14 17 1017.0 - - - - - - - - -
16/06:00am 22.2 E 14 15 1016.8 - - - - - - - - -
16/05:30am 22.1 ENE 13 17 1016.3 - - - - - - - - -
16/05:00am 22.0 ENE 14 16 1015.8 - - - - - - - - -
16/04:30am 22.1 ENE 15 18 1015.5 - - - - - - - - -
16/04:00am 22.0 ENE 16 19 1015.5 - - - - - - - - -
16/03:30am 22.1 ENE 15 17 1015.4 - - - - - - - - -
16/03:00am 22.2 E 13 17 1015.6 - - - - - - - - -
16/02:30am 22.1 E 13 16 1015.8 - - - - - - - - -
16/02:00am 22.1 E 12 14 1015.9 - - - - - - - - -
16/01:30am 22.0 ENE 12 16 1016.3 - - - - - - - - -
16/01:00am 22.1 ENE 12 14 1016.5 - - - - - - - - -
16/12:30am 22.2 E 11 14 1016.8 - - - - - - - - -
16/12:00am 22.0 ENE 11 14 1017.0 - - - - - - - - -
 
Date/Time
EST
Temp
°C
Wind Pressure Rain since
9am
mm
Weather Cloud Vis
km
Sea
Height
m
Swell
Dir  Spd
kts
Gust
kts
hPa Trend Height
m
Period
s
Dir
15/11:30pm 22.3 ENE 11 14 1017.1 - - - - - - - - -
15/11:00pm 22.2 NE 10 13 1017.2 - - - - - - - - -
15/10:30pm 22.2 ENE 10 12 1017.3 - - - - - - - - -
15/10:00pm 22.1 E 10 13 1017.4 - - - - - - - - -
15/09:30pm 22.2 ENE 10 13 1017.4 - - - - - - - - -
15/09:00pm 22.2 ENE 10 13 1017.4 - - - - - - - - -
15/08:30pm 22.2 ESE 8 11 1017.5 - - - - - - - - -
15/08:00pm 22.1 E 10 13 1017.5 - - - - - - - - -
15/07:30pm 22.3 E 10 12 1017.3 - - - - - - - - -
15/07:00pm 22.3 ENE 10 12 1017.2 - - - - - - - - -
15/06:30pm 22.3 E 9 11 1017.2 - - - - - - - - -
15/06:00pm 22.4 E 10 12 1017.0 - - - - - - - - -
15/05:30pm 22.3 E 10 11 1016.8 - - - - - - - - -
15/05:00pm 22.4 ESE 10 12 1016.8 - - - - - - - - -
15/04:30pm 22.4 ESE 9 11 1016.7 - - - - - - - - -
15/04:00pm 22.5 ESE 9 11 1016.5 - - - - - - - - -
15/03:30pm 22.4 ESE 9 11 1016.5 - - - - - - - - -
15/03:00pm 22.5 ESE 9 11 1016.6 - - - - - - - - -
15/02:30pm 22.3 ESE 8 9 1016.6 - - - - - - - - -
15/02:00pm 22.4 ESE 8 11 1016.6 - - - - - - - - -
15/01:30pm 22.1 E 8 10 1016.9 - - - - - - - - -
15/01:00pm 22.2 ESE 9 11 1017.1 - - - - - - - - -
15/12:30pm 22.2 E 8 10 1017.6 - - - - - - - - -
15/12:00pm 22.3 E 9 11 1017.8 - - - - - - - - -
15/11:30am 22.3 E 9 13 1018.2 - - - - - - - - -
15/11:00am 22.3 E 9 11 1018.5 - - - - - - - - -
15/10:30am 22.2 E 9 11 1019.0 - - - - - - - - -
15/10:00am 22.4 E 9 10 1019.2 - - - - - - - - -
15/09:30am 22.4 E 9 11 1019.6 - - - - - - - - -
15/09:00am 22.2 E 9 11 1019.7 - - - - - - - - -
15/08:30am 22.3 E 9 11 1019.4 - - - - - - - - -
15/08:00am 22.0 E 10 12 1019.2 - - - - - - - - -
15/07:30am 22.1 E 10 12 1018.7 - - - - - - - - -
15/07:00am 22.0 E 11 13 1018.3 - - - - - - - - -
15/06:30am 22.0 E 10 11 1018.1 - - - - - - - - -
15/06:00am 21.6 E 10 12 1017.9 - - - - - - - - -
15/05:30am 21.6 E 9 12 1017.7 - - - - - - - - -
15/05:00am 21.8 E 9 12 1017.5 - - - - - - - - -
15/04:30am 21.8 E 9 11 1017.2 - - - - - - - - -
15/04:00am 21.7 SSE 8 9 1017.0 - - - - - - - - -
15/03:30am 21.6 S 8 10 1017.1 - - - - - - - - -
15/03:00am 21.8 S 8 10 1017.1 - - - - - - - - -
15/02:30am 21.7 SSE 9 11 1017.1 - - - - - - - - -
15/02:00am 21.7 S 8 9 1017.2 - - - - - - - - -
15/01:30am 21.9 S 8 10 1017.5 - - - - - - - - -
15/01:00am 21.7 SSE 9 10 1017.7 - - - - - - - - -
15/12:30am 21.8 S 8 9 1018.0 - - - - - - - - -
15/12:00am 21.7 SSE 8 10 1018.0 - - - - - - - - -
 
Date/Time
EST
Temp
°C
Wind Pressure Rain since
9am
mm
Weather Cloud Vis
km
Sea
Height
m
Swell
Dir  Spd
kts
Gust
kts
hPa Trend Height
m
Period
s
Dir
14/11:30pm 21.7 SE 9 11 1018.1 - - - - - - - - -
14/11:00pm 21.9 SE 8 11 1018.3 - - - - - - - - -
14/10:30pm 21.9 SE 9 11 1018.6 - - - - - - - - -
14/10:00pm 22.0 SSE 10 12 1018.8 - - - - - - - - -
14/09:30pm 22.1 SSE 10 12 1018.9 - - - - - - - - -
14/09:00pm 22.1 SSE 11 13 1018.8 - - - - - - - - -
14/08:30pm 22.2 SSE 11 13 1018.4 - - - - - - - - -
14/08:00pm 22.2 SSE 11 13 1018.4 - - - - - - - - -
14/07:30pm 22.2 S 11 12 1018.4 - - - - - - - - -
14/07:00pm 22.4 SSE 9 11 1018.2 - - - - - - - - -
14/06:30pm 22.3 SSE 9 10 1017.8 - - - - - - - - -
14/06:00pm 22.5 SE 8 10 1017.6 - - - - - - - - -
14/05:30pm 22.4 SE 7 9 1017.2 - - - - - - - - -
14/05:00pm 22.4 SE 8 9 1017.1 - - - - - - - - -
14/04:30pm 22.4 SE 8 9 1016.9 - - - - - - - - -
14/04:00pm 22.6 SE 8 10 1016.8 - - - - - - - - -
14/03:30pm 22.5 SSE 8 10 1016.8 - - - - - - - - -
14/03:00pm 22.4 SSE 9 11 1016.8 - - - - - - - - -
14/02:30pm 22.5 SE 8 9 1017.1 - - - - - - - - -
14/02:00pm 22.4 SE 9 11 1017.0 - - - - - - - - -
14/01:30pm 22.4 SE 8 11 1017.4 - - - - - - - - -
14/01:00pm 22.3 SE 8 9 1017.8 - - - - - - - - -
14/12:30pm 22.3 E 10 12 1017.8 - - - - - - - - -
14/12:00pm 22.2 E 11 13 1017.8 - - - - - - - - -
14/11:30am 22.2 ESE 11 13 1018.3 - - - - - - - - -
14/11:00am 22.3 E 11 14 1018.7 - - - - - - - - -
14/10:30am 22.3 ESE 11 14 1019.3 - - - - - - - - -
14/10:00am 22.2 ESE 13 15 1019.8 - - - - - - - - -
14/09:30am 22.3 E 12 14 1020.1 - - - - - - - - -
14/09:00am 22.4 E 12 15 1020.1 - - - - - - - - -
14/08:30am 22.2 ESE 11 14 1020.1 - - - - - - - - -
14/08:00am 22.1 E 12 14 1019.9 - - - - - - - - -
14/07:30am 22.2 E 13 15 1019.7 - - - - - - - - -
14/07:00am 22.1 E 14 16 1019.4 - - - - - - - - -
14/06:30am 22.2 E 15 17 1019.3 - - - - - - - - -
14/06:00am 22.0 E 14 18 1019.0 - - - - - - - - -

Other Formats:

Comma delimited format used in spreadsheet applications
http://www.bom.gov.au/fwo/IDQ60701/IDQ60701.94393.axf

JavaScript Object Notation format (JSON) in row-major order
http://www.bom.gov.au/fwo/IDQ60701/IDQ60701.94393.json